Teresa Mcallister — WDC6818 — position and weather

sailwx.info

Track history (hours):
 
Tides and Currents Weather Stations Pressure Air Temp Water Temp Dewpoint Dewpoint Depression Visibility Wind Speed Wind Dir Waves Ship Positions

Teresa Mcallister

Owner: McAllister Towing of Philadelphia, INC, Philadelphia, PA. More information available from US FCC via Universal Licensing System and Coast Guard Vessel Documentation Center.

Last reported at 2017-Nov-19 08:00 UTC. Time now 2017-Nov-19 08:30 UTC.
Position N 39°54' W 075°13'.

Length 28 m.

Type: Tug. MMSI: 367061730.

Date/timePositionNaut miles runAvg speedWind from/ knotsBaromVisibWave heightAir tempDewpointWater temp
2017-Nov-19 08:00N 39°54' W 075°13'1 1.5
2017-Nov-19 07:31N 39°54' W 075°12'0 0.0
2017-Nov-19 07:01N 39°54' W 075°12'0 0.3
2017-Nov-19 06:30N 39°54' W 075°12'3 5.8
2017-Nov-19 06:00N 39°54' W 075°08'0 0.6
2017-Nov-19 05:30N 39°54' W 075°08'0 0.5
2017-Nov-19 05:00N 39°54' W 075°08'0 0.8
2017-Nov-19 04:30N 39°54' W 075°08'3 5.8
2017-Nov-19 04:01N 39°53' W 075°12'1 1.2
2017-Nov-19 03:30N 39°54' W 075°12'0 0.0
2017-Nov-19 03:00N 39°54' W 075°12'0 0.0
2017-Nov-19 02:30N 39°54' W 075°12'0 0.0
2017-Nov-19 02:01N 39°54' W 075°12'0 0.0
2017-Nov-19 01:30N 39°54' W 075°12'0 0.0
2017-Nov-19 01:00N 39°54' W 075°12'0 0.0
2017-Nov-19 00:30N 39°54' W 075°12'0 0.0
2017-Nov-19 00:01N 39°54' W 075°12'0 0.0
2017-Nov-18 23:30N 39°54' W 075°12'0 0.0
2017-Nov-18 23:01N 39°54' W 075°12'0 0.0
2017-Nov-18 22:30N 39°54' W 075°12'0 0.0
2017-Nov-18 22:01N 39°54' W 075°12'0 0.0
2017-Nov-18 21:30N 39°54' W 075°12'0 0.0
2017-Nov-18 21:00N 39°54' W 075°12'0 0.0
2017-Nov-18 20:31N 39°54' W 075°12'0 0.0
2017-Nov-18 20:01N 39°54' W 075°12'0 0.2
2017-Nov-18 19:30N 39°54' W 075°12'4 8.7
2017-Nov-18 19:00N 39°51' W 075°16'5 9.7
2017-Nov-18 18:30N 39°50' W 075°22'2 3.6
2017-Nov-18 18:01N 39°49' W 075°24'0 0.1
2017-Nov-18 17:30N 39°49' W 075°24'1 2.6
2017-Nov-18 17:00N 39°48' W 075°26'0 0.0
2017-Nov-18 16:30N 39°48' W 075°26'1 1.5
2017-Nov-18 16:00N 39°48' W 075°25'0 0.2
2017-Nov-18 15:31N 39°48' W 075°25'0 0.7
2017-Nov-18 15:00N 39°48' W 075°25'2 3.4
2017-Nov-18 14:31N 39°49' W 075°24'4 8.3
2017-Nov-18 14:01N 39°51' W 075°19'5 9.7
2017-Nov-18 13:30N 39°52' W 075°13'2 3.2
2017-Nov-18 13:00N 39°54' W 075°12'0 0.0
2017-Nov-18 12:31N 39°54' W 075°12'0 0.0
2017-Nov-18 12:00N 39°54' W 075°12'0 0.0
2017-Nov-18 11:30N 39°54' W 075°12'0 0.0
2017-Nov-18 11:01N 39°54' W 075°12'0 0.0
2017-Nov-18 10:30N 39°54' W 075°12'0 0.0
2017-Nov-18 10:00N 39°54' W 075°12'0 0.0
2017-Nov-18 09:30N 39°54' W 075°12'0 0.0
2017-Nov-18 09:00N 39°54' W 075°12'0 0.0
2017-Nov-18 08:30N 39°54' W 075°12'0 0.0
2017-Nov-18 08:00N 39°54' W 075°12'0 0.0
2017-Nov-18 07:31N 39°54' W 075°12'0 0.0
2017-Nov-18 07:00N 39°54' W 075°12'0 0.0
2017-Nov-18 06:30N 39°54' W 075°12'0 0.0
2017-Nov-18 06:01N 39°54' W 075°12'0 0.0
2017-Nov-18 05:30N 39°54' W 075°12'0 0.0
2017-Nov-18 05:01N 39°54' W 075°12'0 0.0
2017-Nov-18 04:30N 39°54' W 075°12'0 0.0
2017-Nov-18 04:00N 39°54' W 075°12'0 0.0
2017-Nov-18 03:30N 39°54' W 075°12'0 0.0
2017-Nov-18 03:01N 39°54' W 075°12'0 0.0
2017-Nov-18 02:30N 39°54' W 075°12'0 0.0
2017-Nov-18 02:01N 39°54' W 075°12'0 0.0
2017-Nov-18 01:31N 39°54' W 075°12'0 0.0
2017-Nov-18 01:00N 39°54' W 075°12'0 0.0
2017-Nov-18 00:31N 39°54' W 075°12'3 5.3
2017-Nov-18 00:00N 39°53' W 075°08'610.4
2017-Nov-17 23:28N 39°59' W 075°05'0 0.9
2017-Nov-17 23:00N 39°59' W 075°05'2 4.3
2017-Nov-17 22:30N 39°58' W 075°07'4 8.2
2017-Nov-17 22:00N 39°54' W 075°08'3 5.8
2017-Nov-17 21:30N 39°54' W 075°12'0 0.0
2017-Nov-17 21:00N 39°54' W 075°12'0 0.0
2017-Nov-17 20:30N 39°54' W 075°12'0 0.0
2017-Nov-17 20:01N 39°54' W 075°12'0 0.0
2017-Nov-17 19:30N 39°54' W 075°12'2 3.8
2017-Nov-17 19:01N 39°53' W 075°10'1 2.4
2017-Nov-17 18:31N 39°53' W 075°11'1 1.9
2017-Nov-17 18:01N 39°54' W 075°12'0 0.0
2017-Nov-17 17:31N 39°54' W 075°12'0 0.0
2017-Nov-17 17:00N 39°54' W 075°12'0 0.0
2017-Nov-17 16:30N 39°54' W 075°12'0 0.0
2017-Nov-17 16:00N 39°54' W 075°12'0 0.0
2017-Nov-17 15:30N 39°54' W 075°12'0 0.0
2017-Nov-17 15:00N 39°54' W 075°12'0 0.0
2017-Nov-17 14:30N 39°54' W 075°12'0 0.0
2017-Nov-17 14:01N 39°54' W 075°12'0 0.0
2017-Nov-17 13:31N 39°54' W 075°12'0 0.0
2017-Nov-17 13:00N 39°54' W 075°12'0 0.0
2017-Nov-17 12:30N 39°54' W 075°12'0 0.0
2017-Nov-17 12:01N 39°54' W 075°12'0 0.0
2017-Nov-17 11:30N 39°54' W 075°12'0 0.0
2017-Nov-17 11:01N 39°54' W 075°12'0 0.0
2017-Nov-17 10:30N 39°54' W 075°12'0 0.0
2017-Nov-17 10:00N 39°54' W 075°12'0 0.0
2017-Nov-17 09:30N 39°54' W 075°12'0 0.0
2017-Nov-17 09:00N 39°54' W 075°12'0 0.0
2017-Nov-17 08:30N 39°54' W 075°12'0 0.0
2017-Nov-17 08:00N 39°54' W 075°12'0 0.0
2017-Nov-17 07:30N 39°54' W 075°12'0 0.0
2017-Nov-17 07:00N 39°54' W 075°12'0 0.0
2017-Nov-17 06:30N 39°54' W 075°12'0 0.0
2017-Nov-17 06:00N 39°54' W 075°12'0 0.0
2017-Nov-17 05:30N 39°54' W 075°12'0 0.0
2017-Nov-17 05:01N 39°54' W 075°12'0 0.0
2017-Nov-17 04:30N 39°54' W 075°12'2 3.1
2017-Nov-17 04:00N 39°53' W 075°10'3 6.9
2017-Nov-17 03:30N 39°56' W 075°08'0 0.1
2017-Nov-17 03:00N 39°56' W 075°08'1 2.1
2017-Nov-17 02:30N 39°55' W 075°08'3 6.0
2017-Nov-17 02:01N 39°53' W 075°11'1 2.3
2017-Nov-17 01:31N 39°54' W 075°12'0 0.0
2017-Nov-17 01:01N 39°54' W 075°12'0 0.0
2017-Nov-17 00:30N 39°54' W 075°12'0 0.0
2017-Nov-17 00:01N 39°54' W 075°12'0 0.0
2017-Nov-16 23:30N 39°54' W 075°12'0 0.0
2017-Nov-16 23:00N 39°54' W 075°12'0 0.0
2017-Nov-16 22:30N 39°54' W 075°12'0 0.0
2017-Nov-16 22:00N 39°54' W 075°12'0 0.0
2017-Nov-16 21:30N 39°54' W 075°12'0 0.0
2017-Nov-16 21:01N 39°54' W 075°12'0 0.0
2017-Nov-16 20:31N 39°54' W 075°12'0 0.0
2017-Nov-16 20:01N 39°54' W 075°12'0 0.0
2017-Nov-16 19:30N 39°54' W 075°12'0 0.0
2017-Nov-16 19:01N 39°54' W 075°12'3 6.4
2017-Nov-16 18:30N 39°51' W 075°14'1 2.6
2017-Nov-16 18:01N 39°51' W 075°16'3 5.7
2017-Nov-16 17:31N 39°52' W 075°13'2 3.4
2017-Nov-16 17:01N 39°54' W 075°12'0 0.0
2017-Nov-16 16:30N 39°54' W 075°12'0 0.0
2017-Nov-16 16:01N 39°54' W 075°12'0 0.0
2017-Nov-16 15:31N 39°54' W 075°12'0 0.0
2017-Nov-16 15:01N 39°54' W 075°12'0 0.0
2017-Nov-16 14:31N 39°54' W 075°12'0 0.0
2017-Nov-16 14:01N 39°54' W 075°12'0 0.0
2017-Nov-16 13:31N 39°54' W 075°12'0 0.1
2017-Nov-16 13:01N 39°54' W 075°12'0 0.0
2017-Nov-16 12:31N 39°54' W 075°12'0 0.0
2017-Nov-16 12:01N 39°54' W 075°12'0 0.0
2017-Nov-16 11:30N 39°54' W 075°12'0 0.0
2017-Nov-16 11:01N 39°54' W 075°12'0 0.0
2017-Nov-16 10:30N 39°54' W 075°12'0 0.0
2017-Nov-16 10:00N 39°54' W 075°12'0 0.0
2017-Nov-16 09:30N 39°54' W 075°12'0 0.0
2017-Nov-16 09:00N 39°54' W 075°12'0 0.0
2017-Nov-16 08:30N 39°54' W 075°12'0 0.0
2017-Nov-16 08:00N 39°54' W 075°12'0 0.0
2017-Nov-16 07:30N 39°54' W 075°12'0 0.0
2017-Nov-16 07:00N 39°54' W 075°12'0 0.0
2017-Nov-16 06:30N 39°54' W 075°12'0 0.0
2017-Nov-16 06:00N 39°54' W 075°12'0 0.0
2017-Nov-16 05:31N 39°54' W 075°12'0 0.0
2017-Nov-16 05:01N 39°54' W 075°12'1 2.6
2017-Nov-16 04:30N 39°53' W 075°11'3 5.4
2017-Nov-16 04:00N 39°54' W 075°08'0 0.0
2017-Nov-16 03:31N 39°54' W 075°08'0 0.3
2017-Nov-16 03:00N 39°54' W 075°08'2 4.2
2017-Nov-16 02:31N 39°53' W 075°09'2 4.1
2017-Nov-16 02:01N 39°54' W 075°12'0 0.0
2017-Nov-16 01:31N 39°54' W 075°12'0 0.0
2017-Nov-16 01:01N 39°54' W 075°12'0 0.0
2017-Nov-16 00:31N 39°54' W 075°12'0 0.0
2017-Nov-16 00:01N 39°54' W 075°12'0 0.0
2017-Nov-15 23:30N 39°54' W 075°12'0 0.0
2017-Nov-15 23:00N 39°54' W 075°12'0 0.0
2017-Nov-15 22:31N 39°54' W 075°12'0 0.0
2017-Nov-15 22:01N 39°54' W 075°12'0 0.0
2017-Nov-15 21:31N 39°54' W 075°12'0 0.0
2017-Nov-15 21:00N 39°54' W 075°12'0 0.0
2017-Nov-15 20:30N 39°54' W 075°12'0 0.0
2017-Nov-15 20:01N 39°54' W 075°12'0 0.0
2017-Nov-15 19:30N 39°54' W 075°12'0 0.0
2017-Nov-15 19:00N 39°54' W 075°12'0 0.0
2017-Nov-15 18:31N 39°54' W 075°12'0 0.0
2017-Nov-15 18:01N 39°54' W 075°12'0 0.0
2017-Nov-15 17:31N 39°54' W 075°12'0 0.0
2017-Nov-15 17:01N 39°54' W 075°12'3 5.1
2017-Nov-15 16:30N 39°53' W 075°09'4 8.4
2017-Nov-15 16:01N 39°57' W 075°08'4 8.7
2017-Nov-15 15:31N 39°60' W 075°04'5 9.4
2017-Nov-15 15:00N 40°03' W 074°59'5 9.5
2017-Nov-15 14:31N 40°05' W 074°53'4 7.9
2017-Nov-15 14:00N 40°08' W 074°49'3 6.7
2017-Nov-15 13:31N 40°08' W 074°45'0 0.3
2017-Nov-15 13:01N 40°08' W 074°45'2 3.6
2017-Nov-15 12:30N 40°07' W 074°47'4 8.4
2017-Nov-15 12:01N 40°05' W 074°52'510.3
2017-Nov-15 11:30N 40°03' W 074°58'510.0
2017-Nov-15 11:00N 40°00' W 075°03'5 9.3
2017-Nov-15 10:31N 39°57' W 075°08'5 9.1
2017-Nov-15 10:00N 39°53' W 075°09'  
Track history (hours):
 
Tides and Currents Weather Stations Pressure Air Temp Water Temp Dewpoint Dewpoint Depression Visibility Wind Speed Wind Dir Waves Ship Positions

Teresa Mcallister

Owner: McAllister Towing of Philadelphia, INC, Philadelphia, PA. More information available from US FCC via Universal Licensing System and Coast Guard Vessel Documentation Center.

Last reported at 2017-Nov-19 08:00 UTC. Time now 2017-Nov-19 08:30 UTC.
Position N 39°54' W 075°13'.

Length 28 m.

Type: Tug. MMSI: 367061730.

Date/timePositionNaut miles runAvg speedWind from/ knotsBaromVisibWave heightAir tempDewpointWater temp
2017-Nov-19 08:00N 39°54' W 075°13'1 1.5
2017-Nov-19 07:31N 39°54' W 075°12'0 0.0
2017-Nov-19 07:01N 39°54' W 075°12'0 0.3
2017-Nov-19 06:30N 39°54' W 075°12'3 5.8
2017-Nov-19 06:00N 39°54' W 075°08'0 0.6
2017-Nov-19 05:30N 39°54' W 075°08'0 0.5
2017-Nov-19 05:00N 39°54' W 075°08'0 0.8
2017-Nov-19 04:30N 39°54' W 075°08'3 5.8
2017-Nov-19 04:01N 39°53' W 075°12'1 1.2
2017-Nov-19 03:30N 39°54' W 075°12'0 0.0
2017-Nov-19 03:00N 39°54' W 075°12'0 0.0
2017-Nov-19 02:30N 39°54' W 075°12'0 0.0
2017-Nov-19 02:01N 39°54' W 075°12'0 0.0
2017-Nov-19 01:30N 39°54' W 075°12'0 0.0
2017-Nov-19 01:00N 39°54' W 075°12'0 0.0
2017-Nov-19 00:30N 39°54' W 075°12'0 0.0
2017-Nov-19 00:01N 39°54' W 075°12'0 0.0
2017-Nov-18 23:30N 39°54' W 075°12'0 0.0
2017-Nov-18 23:01N 39°54' W 075°12'0 0.0
2017-Nov-18 22:30N 39°54' W 075°12'0 0.0
2017-Nov-18 22:01N 39°54' W 075°12'0 0.0
2017-Nov-18 21:30N 39°54' W 075°12'0 0.0
2017-Nov-18 21:00N 39°54' W 075°12'0 0.0
2017-Nov-18 20:31N 39°54' W 075°12'0 0.0
2017-Nov-18 20:01N 39°54' W 075°12'0 0.2
2017-Nov-18 19:30N 39°54' W 075°12'4 8.7
2017-Nov-18 19:00N 39°51' W 075°16'5 9.7
2017-Nov-18 18:30N 39°50' W 075°22'2 3.6
2017-Nov-18 18:01N 39°49' W 075°24'0 0.1
2017-Nov-18 17:30N 39°49' W 075°24'1 2.6
2017-Nov-18 17:00N 39°48' W 075°26'0 0.0
2017-Nov-18 16:30N 39°48' W 075°26'1 1.5
2017-Nov-18 16:00N 39°48' W 075°25'0 0.2
2017-Nov-18 15:31N 39°48' W 075°25'0 0.7
2017-Nov-18 15:00N 39°48' W 075°25'2 3.4
2017-Nov-18 14:31N 39°49' W 075°24'4 8.3
2017-Nov-18 14:01N 39°51' W 075°19'5 9.7
2017-Nov-18 13:30N 39°52' W 075°13'2 3.2
2017-Nov-18 13:00N 39°54' W 075°12'0 0.0
2017-Nov-18 12:31N 39°54' W 075°12'0 0.0
2017-Nov-18 12:00N 39°54' W 075°12'0 0.0
2017-Nov-18 11:30N 39°54' W 075°12'0 0.0
2017-Nov-18 11:01N 39°54' W 075°12'0 0.0
2017-Nov-18 10:30N 39°54' W 075°12'0 0.0
2017-Nov-18 10:00N 39°54' W 075°12'0 0.0
2017-Nov-18 09:30N 39°54' W 075°12'0 0.0
2017-Nov-18 09:00N 39°54' W 075°12'0 0.0
2017-Nov-18 08:30N 39°54' W 075°12'0 0.0
2017-Nov-18 08:00N 39°54' W 075°12'0 0.0
2017-Nov-18 07:31N 39°54' W 075°12'0 0.0
2017-Nov-18 07:00N 39°54' W 075°12'0 0.0
2017-Nov-18 06:30N 39°54' W 075°12'0 0.0
2017-Nov-18 06:01N 39°54' W 075°12'0 0.0
2017-Nov-18 05:30N 39°54' W 075°12'0 0.0
2017-Nov-18 05:01N 39°54' W 075°12'0 0.0
2017-Nov-18 04:30N 39°54' W 075°12'0 0.0
2017-Nov-18 04:00N 39°54' W 075°12'0 0.0
2017-Nov-18 03:30N 39°54' W 075°12'0 0.0
2017-Nov-18 03:01N 39°54' W 075°12'0 0.0
2017-Nov-18 02:30N 39°54' W 075°12'0 0.0
2017-Nov-18 02:01N 39°54' W 075°12'0 0.0
2017-Nov-18 01:31N 39°54' W 075°12'0 0.0
2017-Nov-18 01:00N 39°54' W 075°12'0 0.0
2017-Nov-18 00:31N 39°54' W 075°12'3 5.3
2017-Nov-18 00:00N 39°53' W 075°08'610.4
2017-Nov-17 23:28N 39°59' W 075°05'0 0.9
2017-Nov-17 23:00N 39°59' W 075°05'2 4.3
2017-Nov-17 22:30N 39°58' W 075°07'4 8.2
2017-Nov-17 22:00N 39°54' W 075°08'3 5.8
2017-Nov-17 21:30N 39°54' W 075°12'0 0.0
2017-Nov-17 21:00N 39°54' W 075°12'0 0.0
2017-Nov-17 20:30N 39°54' W 075°12'0 0.0
2017-Nov-17 20:01N 39°54' W 075°12'0 0.0
2017-Nov-17 19:30N 39°54' W 075°12'2 3.8
2017-Nov-17 19:01N 39°53' W 075°10'1 2.4
2017-Nov-17 18:31N 39°53' W 075°11'1 1.9
2017-Nov-17 18:01N 39°54' W 075°12'0 0.0
2017-Nov-17 17:31N 39°54' W 075°12'0 0.0
2017-Nov-17 17:00N 39°54' W 075°12'0 0.0
2017-Nov-17 16:30N 39°54' W 075°12'0 0.0
2017-Nov-17 16:00N 39°54' W 075°12'0 0.0
2017-Nov-17 15:30N 39°54' W 075°12'0 0.0
2017-Nov-17 15:00N 39°54' W 075°12'0 0.0
2017-Nov-17 14:30N 39°54' W 075°12'0 0.0
2017-Nov-17 14:01N 39°54' W 075°12'0 0.0
2017-Nov-17 13:31N 39°54' W 075°12'0 0.0
2017-Nov-17 13:00N 39°54' W 075°12'0 0.0
2017-Nov-17 12:30N 39°54' W 075°12'0 0.0
2017-Nov-17 12:01N 39°54' W 075°12'0 0.0
2017-Nov-17 11:30N 39°54' W 075°12'0 0.0
2017-Nov-17 11:01N 39°54' W 075°12'0 0.0
2017-Nov-17 10:30N 39°54' W 075°12'0 0.0
2017-Nov-17 10:00N 39°54' W 075°12'0 0.0
2017-Nov-17 09:30N 39°54' W 075°12'0 0.0
2017-Nov-17 09:00N 39°54' W 075°12'0 0.0
2017-Nov-17 08:30N 39°54' W 075°12'0 0.0
2017-Nov-17 08:00N 39°54' W 075°12'0 0.0
2017-Nov-17 07:30N 39°54' W 075°12'0 0.0
2017-Nov-17 07:00N 39°54' W 075°12'0 0.0
2017-Nov-17 06:30N 39°54' W 075°12'0 0.0
2017-Nov-17 06:00N 39°54' W 075°12'0 0.0
2017-Nov-17 05:30N 39°54' W 075°12'0 0.0
2017-Nov-17 05:01N 39°54' W 075°12'0 0.0
2017-Nov-17 04:30N 39°54' W 075°12'2 3.1
2017-Nov-17 04:00N 39°53' W 075°10'3 6.9
2017-Nov-17 03:30N 39°56' W 075°08'0 0.1
2017-Nov-17 03:00N 39°56' W 075°08'1 2.1
2017-Nov-17 02:30N 39°55' W 075°08'3 6.0
2017-Nov-17 02:01N 39°53' W 075°11'1 2.3
2017-Nov-17 01:31N 39°54' W 075°12'0 0.0
2017-Nov-17 01:01N 39°54' W 075°12'0 0.0
2017-Nov-17 00:30N 39°54' W 075°12'0 0.0
2017-Nov-17 00:01N 39°54' W 075°12'0 0.0
2017-Nov-16 23:30N 39°54' W 075°12'0 0.0
2017-Nov-16 23:00N 39°54' W 075°12'0 0.0
2017-Nov-16 22:30N 39°54' W 075°12'0 0.0
2017-Nov-16 22:00N 39°54' W 075°12'0 0.0
2017-Nov-16 21:30N 39°54' W 075°12'0 0.0
2017-Nov-16 21:01N 39°54' W 075°12'0 0.0
2017-Nov-16 20:31N 39°54' W 075°12'0 0.0
2017-Nov-16 20:01N 39°54' W 075°12'0 0.0
2017-Nov-16 19:30N 39°54' W 075°12'0 0.0
2017-Nov-16 19:01N 39°54' W 075°12'3 6.4
2017-Nov-16 18:30N 39°51' W 075°14'1 2.6
2017-Nov-16 18:01N 39°51' W 075°16'3 5.7
2017-Nov-16 17:31N 39°52' W 075°13'2 3.4
2017-Nov-16 17:01N 39°54' W 075°12'0 0.0
2017-Nov-16 16:30N 39°54' W 075°12'0 0.0
2017-Nov-16 16:01N 39°54' W 075°12'0 0.0
2017-Nov-16 15:31N 39°54' W 075°12'0 0.0
2017-Nov-16 15:01N 39°54' W 075°12'0 0.0
2017-Nov-16 14:31N 39°54' W 075°12'0 0.0
2017-Nov-16 14:01N 39°54' W 075°12'0 0.0
2017-Nov-16 13:31N 39°54' W 075°12'0 0.1
2017-Nov-16 13:01N 39°54' W 075°12'0 0.0
2017-Nov-16 12:31N 39°54' W 075°12'0 0.0
2017-Nov-16 12:01N 39°54' W 075°12'0 0.0
2017-Nov-16 11:30N 39°54' W 075°12'0 0.0
2017-Nov-16 11:01N 39°54' W 075°12'0 0.0
2017-Nov-16 10:30N 39°54' W 075°12'0 0.0
2017-Nov-16 10:00N 39°54' W 075°12'0 0.0
2017-Nov-16 09:30N 39°54' W 075°12'0 0.0
2017-Nov-16 09:00N 39°54' W 075°12'0 0.0
2017-Nov-16 08:30N 39°54' W 075°12'0 0.0
2017-Nov-16 08:00N 39°54' W 075°12'0 0.0
2017-Nov-16 07:30N 39°54' W 075°12'0 0.0
2017-Nov-16 07:00N 39°54' W 075°12'0 0.0
2017-Nov-16 06:30N 39°54' W 075°12'0 0.0
2017-Nov-16 06:00N 39°54' W 075°12'0 0.0
2017-Nov-16 05:31N 39°54' W 075°12'0 0.0
2017-Nov-16 05:01N 39°54' W 075°12'1 2.6
2017-Nov-16 04:30N 39°53' W 075°11'3 5.4
2017-Nov-16 04:00N 39°54' W 075°08'0 0.0
2017-Nov-16 03:31N 39°54' W 075°08'0 0.3
2017-Nov-16 03:00N 39°54' W 075°08'2 4.2
2017-Nov-16 02:31N 39°53' W 075°09'2 4.1
2017-Nov-16 02:01N 39°54' W 075°12'0 0.0
2017-Nov-16 01:31N 39°54' W 075°12'0 0.0
2017-Nov-16 01:01N 39°54' W 075°12'0 0.0
2017-Nov-16 00:31N 39°54' W 075°12'0 0.0
2017-Nov-16 00:01N 39°54' W 075°12'0 0.0
2017-Nov-15 23:30N 39°54' W 075°12'0 0.0
2017-Nov-15 23:00N 39°54' W 075°12'0 0.0
2017-Nov-15 22:31N 39°54' W 075°12'0 0.0
2017-Nov-15 22:01N 39°54' W 075°12'0 0.0
2017-Nov-15 21:31N 39°54' W 075°12'0 0.0
2017-Nov-15 21:00N 39°54' W 075°12'0 0.0
2017-Nov-15 20:30N 39°54' W 075°12'0 0.0
2017-Nov-15 20:01N 39°54' W 075°12'0 0.0
2017-Nov-15 19:30N 39°54' W 075°12'0 0.0
2017-Nov-15 19:00N 39°54' W 075°12'0 0.0
2017-Nov-15 18:31N 39°54' W 075°12'0 0.0
2017-Nov-15 18:01N 39°54' W 075°12'0 0.0
2017-Nov-15 17:31N 39°54' W 075°12'0 0.0
2017-Nov-15 17:01N 39°54' W 075°12'3 5.1
2017-Nov-15 16:30N 39°53' W 075°09'4 8.4
2017-Nov-15 16:01N 39°57' W 075°08'4 8.7
2017-Nov-15 15:31N 39°60' W 075°04'5 9.4
2017-Nov-15 15:00N 40°03' W 074°59'5 9.5
2017-Nov-15 14:31N 40°05' W 074°53'4 7.9
2017-Nov-15 14:00N 40°08' W 074°49'3 6.7
2017-Nov-15 13:31N 40°08' W 074°45'0 0.3
2017-Nov-15 13:01N 40°08' W 074°45'2 3.6
2017-Nov-15 12:30N 40°07' W 074°47'4 8.4
2017-Nov-15 12:01N 40°05' W 074°52'510.3
2017-Nov-15 11:30N 40°03' W 074°58'510.0
2017-Nov-15 11:00N 40°00' W 075°03'5 9.3
2017-Nov-15 10:31N 39°57' W 075°08'5 9.1
2017-Nov-15 10:00N 39°53' W 075°09'  

Dump ship's entire track history